createdAt,value
2022-12-04T00:01:19.991Z,2.5625
2022-12-04T00:04:17.072Z,2.7125
2022-12-04T00:07:16.948Z,1.8
2022-12-04T00:11:18.591Z,1.15
2022-12-04T00:14:16.534Z,1.15
2022-12-04T00:17:16.643Z,0.475
2022-12-04T00:21:18.239Z,22.5375
2022-12-04T00:24:16.703Z,2.4625
2022-12-04T00:27:16.621Z,2.2625
2022-12-04T00:31:18.415Z,0.7
2022-12-04T00:34:16.326Z,0.75
2022-12-04T00:37:16.408Z,0.825
2022-12-04T00:41:18.380Z,0.7124999999999999
2022-12-04T00:44:16.076Z,0.475
2022-12-04T00:47:16.139Z,0.6375
2022-12-04T00:51:18.951Z,0.7000000000000001
2022-12-04T00:54:17.194Z,0.45
2022-12-04T00:57:17.074Z,0.48750000000000004
2022-12-04T01:01:18.560Z,1.025
2022-12-04T01:04:16.627Z,0.6875
2022-12-04T01:07:16.667Z,0.5625
2022-12-04T01:11:18.236Z,0.775
2022-12-04T01:14:16.903Z,0.8375
2022-12-04T01:17:17.203Z,0.775
2022-12-04T01:21:17.146Z,0.8999999999999999
2022-12-04T01:24:16.767Z,1.1
2022-12-04T01:27:16.805Z,0.5
2022-12-04T01:31:18.040Z,0.75
2022-12-04T01:34:16.276Z,0.5375000000000001
2022-12-04T01:37:16.672Z,0.25
2022-12-04T01:41:20.270Z,0.5875
2022-12-04T01:44:20.092Z,0.3375
2022-12-04T01:47:17.030Z,0.3125
2022-12-04T01:51:22.848Z,3.9
2022-12-04T01:54:21.518Z,2.025
2022-12-04T01:57:18.781Z,1.1125
2022-12-04T02:01:16.280Z,0.4625
2022-12-04T02:04:16.822Z,0.7250000000000001
2022-12-04T02:07:16.555Z,0.5
2022-12-04T02:11:26.310Z,0.55
2022-12-04T02:14:25.159Z,0.48750000000000004
2022-12-04T02:17:26.716Z,0.275
2022-12-04T02:21:21.856Z,0.5125000000000001
2022-12-04T02:24:31.896Z,0.6749999999999999
2022-12-04T02:27:31.673Z,0.3625
2022-12-04T02:31:21.212Z,0.1875
2022-12-04T02:34:24.748Z,0.25
2022-12-04T02:37:21.739Z,1.3875
2022-12-04T02:41:24.538Z,1.2375
2022-12-04T02:44:22.112Z,0.7375
2022-12-04T02:47:21.829Z,1.475
2022-12-04T02:51:20.798Z,0.38749999999999996
2022-12-04T02:54:25.078Z,0.8250000000000001
2022-12-04T02:57:22.551Z,0.4125
2022-12-04T03:01:28.588Z,0.17500000000000002
2022-12-04T03:04:19.291Z,0.5375000000000001
2022-12-04T03:07:21.444Z,0.375
2022-12-04T03:11:16.730Z,0.1875
2022-12-04T03:14:20.492Z,0.15000000000000002
2022-12-04T03:17:21.396Z,0.0625
2022-12-04T03:21:24.291Z,0.3625
2022-12-04T03:24:23.775Z,0.5499999999999999
2022-12-04T03:27:23.011Z,0.3625
2022-12-04T03:31:22.034Z,0.7125
2022-12-04T03:34:25.012Z,0.525
2022-12-04T03:37:23.689Z,0.5375
2022-12-04T03:41:25.787Z,2.375
2022-12-04T03:44:22.833Z,0.7250000000000001
2022-12-04T03:47:20.481Z,0.7375
2022-12-04T03:51:20.681Z,1.1375
2022-12-04T03:54:22.823Z,1.2625
2022-12-04T03:57:21.961Z,0.8500000000000001
2022-12-04T04:01:18.209Z,2.2
2022-12-04T04:04:22.198Z,0.9000000000000001
2022-12-04T04:07:22.732Z,0.8125
2022-12-04T04:11:20.015Z,0.3
2022-12-04T04:31:24.442Z,1.1875
2022-12-04T04:34:22.735Z,0.8375000000000001
2022-12-04T04:37:25.251Z,0.8625
2022-12-04T04:41:20.296Z,1.875
2022-12-04T04:44:24.633Z,0.7
2022-12-04T04:47:20.974Z,0.9375
2022-12-04T04:51:16.959Z,9.35
2022-12-04T04:54:17.047Z,3.6375
2022-12-04T04:57:26.196Z,1.5250000000000001
2022-12-04T05:01:18.282Z,2.9375
2022-12-04T05:04:16.339Z,1.7000000000000002
2022-12-04T05:07:16.467Z,5.050000000000001
2022-12-04T05:11:17.245Z,2.7375
2022-12-04T05:14:16.734Z,0.8125
2022-12-04T05:17:16.861Z,0.6625
2022-12-04T05:21:16.673Z,0.575
2022-12-04T05:24:16.154Z,0.8625
2022-12-04T05:27:16.154Z,1.8750000000000002
2022-12-04T05:31:16.480Z,2.2125000000000004
2022-12-04T05:34:16.663Z,0.55
2022-12-04T05:37:16.591Z,2.1625
2022-12-04T05:41:16.215Z,3.6875
2022-12-04T05:44:16.662Z,2.675
2022-12-04T05:47:16.816Z,0.625
2022-12-04T05:51:16.635Z,0.55
2022-12-04T05:54:17.223Z,0.55
2022-12-04T05:57:16.984Z,0.6
2022-12-04T06:01:18.699Z,0.625
2022-12-04T06:04:17.253Z,1.75
2022-12-04T06:07:17.092Z,0.4
2022-12-04T06:11:19.996Z,0.425
2022-12-04T06:14:16.313Z,0.30000000000000004
2022-12-04T06:17:16.281Z,0.5
2022-12-04T06:21:16.653Z,0.7625
2022-12-04T06:24:18.641Z,0.55
2022-12-04T06:27:28.675Z,0.4
2022-12-04T06:31:16.660Z,0.5125
2022-12-04T06:41:19.023Z,0.3125
2022-12-04T06:44:17.054Z,0.6124999999999999
2022-12-04T06:47:17.199Z,0.21250000000000002
2022-12-04T06:51:20.016Z,0.3375
2022-12-04T06:54:16.775Z,0.2875
2022-12-04T06:57:16.785Z,0.45
2022-12-04T07:01:18.176Z,0.4875
2022-12-04T07:04:17.086Z,0.35
2022-12-04T07:07:16.905Z,0.6875
2022-12-04T07:11:16.446Z,0.3875
2022-12-04T07:14:15.990Z,0.2375
2022-12-04T07:17:16.110Z,0.55
2022-12-04T07:21:18.667Z,0.9875
2022-12-04T07:24:17.076Z,0.9125
2022-12-04T07:27:16.626Z,0.7375
2022-12-04T07:31:17.389Z,0.6
2022-12-04T07:34:16.027Z,0.5125
2022-12-04T07:37:15.901Z,0.7625000000000001
2022-12-04T07:41:17.751Z,1.0750000000000002
2022-12-04T07:44:16.903Z,0.625
2022-12-04T07:47:16.870Z,0.9875
2022-12-04T07:51:18.974Z,0.8
2022-12-04T07:54:16.865Z,0.6375
2022-12-04T07:57:16.563Z,0.4875
2022-12-04T08:01:18.657Z,0.975
2022-12-04T08:04:16.684Z,1.1125
2022-12-04T08:07:16.825Z,0.8625
2022-12-04T08:11:18.849Z,0.8375
2022-12-04T08:14:16.126Z,2.1375
2022-12-04T08:17:16.248Z,0.9750000000000001
2022-12-04T08:21:19.508Z,1.2375
2022-12-04T08:24:16.440Z,1.7374999999999998
2022-12-04T08:27:16.409Z,1.0125000000000002
2022-12-04T08:31:18.354Z,1.2999999999999998
2022-12-04T08:34:16.475Z,1.3625
2022-12-04T08:37:16.479Z,0.7
2022-12-04T08:41:19.390Z,2.0999999999999996
2022-12-04T08:44:17.121Z,2.1125
2022-12-04T08:47:17.047Z,1.775
2022-12-04T08:51:19.376Z,8.2875
2022-12-04T08:54:16.662Z,7.2124999999999995
2022-12-04T08:57:16.642Z,7.2625
2022-12-04T09:01:18.459Z,1.15
2022-12-04T09:04:16.697Z,1.7
2022-12-04T09:07:16.799Z,1.4875
2022-12-04T09:11:19.058Z,2.225
2022-12-04T09:14:16.242Z,1.2625
2022-12-04T09:17:16.119Z,1.325
2022-12-04T09:21:18.135Z,1.1375
2022-12-04T09:24:16.312Z,0.9749999999999999
2022-12-04T09:27:17.108Z,1.4874999999999998
2022-12-04T09:31:17.484Z,1.3
2022-12-04T09:34:16.839Z,0.7374999999999999
2022-12-04T09:37:18.523Z,0.875
2022-12-04T09:41:39.319Z,1.025
2022-12-04T09:44:22.614Z,0.975
2022-12-04T09:47:25.635Z,3.2874999999999996
2022-12-04T09:51:21.872Z,1.35
2022-12-04T09:54:19.751Z,1
2022-12-04T09:57:24.205Z,1.2875
2022-12-04T10:01:24.160Z,1.1375
2022-12-04T10:04:18.244Z,1.9625
2022-12-04T10:07:24.408Z,1.7874999999999999
2022-12-04T10:11:32.091Z,1.75
2022-12-04T10:14:45.969Z,1.3875
2022-12-04T10:17:32.925Z,1.7125
2022-12-04T10:21:30.238Z,1.9125
2022-12-04T10:24:26.716Z,1.3875
2022-12-04T10:27:22.529Z,1.025
2022-12-04T10:31:16.765Z,1.4249999999999998
2022-12-04T10:34:22.749Z,0.8125
2022-12-04T10:37:17.172Z,1.275
2022-12-04T10:41:23.886Z,1.9375
2022-12-04T10:44:19.277Z,0.7
2022-12-04T10:47:17.402Z,1.0875
2022-12-04T10:51:18.458Z,1.3375000000000001
2022-12-04T10:54:21.660Z,1.2625000000000002
2022-12-04T10:57:16.681Z,1.4125
2022-12-04T11:01:16.429Z,1.2375
2022-12-04T11:04:22.799Z,1.725
2022-12-04T11:07:20.323Z,1.125
2022-12-04T11:11:24.236Z,1.4625
2022-12-04T11:14:18.228Z,1.125
2022-12-04T11:17:18.314Z,1.4875
2022-12-04T11:21:22.251Z,1.4
2022-12-04T11:24:22.780Z,1.7500000000000002
2022-12-04T11:27:22.842Z,1.575
2022-12-04T11:31:19.436Z,1.375
2022-12-04T11:34:20.374Z,1.5499999999999998
2022-12-04T11:37:21.286Z,1.7625
2022-12-04T11:41:26.096Z,1.6500000000000001
2022-12-04T11:44:25.229Z,0.95
2022-12-04T11:47:18.932Z,1.6875
2022-12-04T11:51:29.160Z,1.2125
2022-12-04T11:54:26.446Z,1.45
2022-12-04T11:57:28.739Z,1.4875
2022-12-04T12:01:30.913Z,1.7375000000000003
2022-12-04T12:04:37.137Z,1.15
2022-12-04T12:07:28.165Z,1.6375
2022-12-04T12:11:22.405Z,1.6875
2022-12-04T12:14:24.314Z,1.775
2022-12-04T12:17:24.654Z,1.7125
2022-12-04T12:21:21.284Z,0.9875
2022-12-04T12:24:26.171Z,0.925
2022-12-04T12:27:33.853Z,1.3
2022-12-04T12:31:35.257Z,1.0125
2022-12-04T12:34:23.977Z,4.3625
2022-12-04T12:37:24.948Z,9.3875
2022-12-04T12:41:22.442Z,11.5125
2022-12-04T12:44:21.804Z,3.3125
2022-12-04T12:47:20.196Z,1.8875000000000002
2022-12-04T12:51:30.371Z,1.5
2022-12-04T12:54:27.493Z,1.7125
2022-12-04T12:57:20.977Z,1.4
2022-12-04T13:01:22.909Z,1.6
2022-12-04T13:04:24.337Z,0.9125
2022-12-04T13:07:26.930Z,1.075
2022-12-04T13:11:19.362Z,0.925
2022-12-04T13:14:16.591Z,1.2125
2022-12-04T13:17:23.816Z,1.7125
2022-12-04T13:21:31.441Z,1.9
2022-12-04T13:25:33.820Z,1.8125
2022-12-04T13:27:27.837Z,2.4625
2022-12-04T13:31:28.481Z,3.4000000000000004
2022-12-04T13:34:37.433Z,1.925
2022-12-04T13:37:31.242Z,2.9375
2022-12-04T13:41:19.451Z,1.5
2022-12-04T13:44:21.641Z,2.8625
2022-12-04T13:47:26.641Z,3.2875
2022-12-04T13:51:33.369Z,3.325
2022-12-04T13:54:22.986Z,2.0875
2022-12-04T13:57:20.140Z,2.625
2022-12-04T14:01:27.679Z,6.025
2022-12-04T14:04:24.150Z,3.9375
2022-12-04T14:07:26.113Z,6.074999999999999
2022-12-04T14:11:18.667Z,2.5
2022-12-04T14:14:25.784Z,3.125
2022-12-04T14:17:19.772Z,2.3375
2022-12-04T14:21:16.906Z,2.6624999999999996
2022-12-04T14:24:27.112Z,6.925
2022-12-04T14:27:41.590Z,3.6499999999999995
2022-12-04T14:31:25.484Z,5.887500000000001
2022-12-04T14:34:21.301Z,3.525
2022-12-04T14:37:24.584Z,5.825
2022-12-04T14:41:24.049Z,1.9125
2022-12-04T14:44:27.610Z,2.25
2022-12-04T14:47:25.384Z,2.9
2022-12-04T14:51:24.071Z,4.0625
2022-12-04T14:54:27.631Z,2.65
2022-12-04T14:57:32.294Z,3.9
2022-12-04T15:01:26.876Z,2.5374999999999996
2022-12-04T15:04:23.241Z,6.25
2022-12-04T15:07:19.326Z,7.7250000000000005
2022-12-04T15:21:16.638Z,6.7375
2022-12-04T15:24:19.892Z,13.45
2022-12-04T15:27:20.602Z,10.3375
2022-12-04T15:31:19.924Z,4.7875
2022-12-04T15:34:20.611Z,14.737499999999999
2022-12-04T15:37:21.283Z,20.512500000000003
2022-12-04T15:41:30.026Z,10.587499999999999
2022-12-04T15:44:28.101Z,6.362500000000001
2022-12-04T15:47:20.059Z,6.449999999999999
2022-12-04T15:51:20.333Z,3.8
2022-12-04T15:54:21.229Z,8.5875
2022-12-04T15:57:22.327Z,12.225000000000001
2022-12-04T16:01:16.718Z,3.1375
2022-12-04T16:04:20.943Z,2.2
2022-12-04T16:07:22.179Z,2.3125
2022-12-04T16:11:30.177Z,2.5625
2022-12-04T16:14:17.849Z,8.7
2022-12-04T16:17:17.509Z,4.2375
2022-12-04T16:21:18.031Z,2.8875
2022-12-04T16:24:16.908Z,7.625
2022-12-04T16:27:19.425Z,8.1125
2022-12-04T16:31:17.283Z,4.199999999999999
2022-12-04T16:34:17.008Z,3.825
2022-12-04T16:37:20.000Z,3.675
2022-12-04T16:41:17.907Z,7.05
2022-12-04T16:44:16.556Z,3.05
2022-12-04T16:47:17.188Z,4.45
2022-12-04T16:51:18.989Z,3.4375
2022-12-04T16:54:17.262Z,2.05
2022-12-04T16:57:17.005Z,3.0875
2022-12-04T17:01:20.965Z,3.7375
2022-12-04T17:04:17.968Z,4.7875
2022-12-04T17:07:17.214Z,3.35
2022-12-04T17:11:17.450Z,2.6
2022-12-04T17:14:16.887Z,2.3125
2022-12-04T17:17:16.771Z,2.2125
2022-12-04T17:21:16.529Z,7.550000000000001
2022-12-04T17:24:16.174Z,3.7750000000000004
2022-12-04T17:27:16.152Z,4.2875
2022-12-04T17:31:18.642Z,4.3125
2022-12-04T17:34:16.511Z,4.0375
2022-12-04T17:37:16.623Z,5.35
2022-12-04T17:41:16.865Z,4.6625
2022-12-04T17:44:16.657Z,3.025
2022-12-04T17:47:16.985Z,3.6875
2022-12-04T17:51:18.232Z,3.5749999999999997
2022-12-04T17:54:16.598Z,3.9749999999999996
2022-12-04T17:57:17.874Z,3.625
2022-12-04T18:01:18.735Z,4.8625
2022-12-04T18:04:17.785Z,6.1875
2022-12-04T18:07:16.919Z,10.7
2022-12-04T18:11:16.529Z,12.975
2022-12-04T18:14:18.704Z,7.1125
2022-12-04T18:17:17.784Z,8.3
2022-12-04T18:21:16.454Z,44.825
2022-12-04T18:24:17.873Z,28.799999999999997
2022-12-04T18:27:16.693Z,45.587500000000006
2022-12-04T18:31:18.763Z,145.5375
2022-12-04T18:34:16.919Z,215.95
2022-12-04T18:37:16.951Z,69.4375
2022-12-04T18:41:16.126Z,75.5625
2022-12-04T18:44:17.342Z,14.825000000000001
2022-12-04T18:47:16.807Z,10.625
2022-12-04T18:51:19.647Z,4.3125
2022-12-04T18:54:19.009Z,9.274999999999999
2022-12-04T18:57:16.832Z,7.987500000000001
2022-12-04T19:01:18.516Z,9.9125
2022-12-04T19:04:19.284Z,10.6625
2022-12-04T19:07:18.971Z,7.1875
2022-12-04T19:11:16.863Z,5.362500000000001
2022-12-04T19:14:23.343Z,11.825
2022-12-04T19:17:17.241Z,10.8
2022-12-04T19:21:17.764Z,7.7124999999999995
2022-12-04T19:24:18.031Z,11.575
2022-12-04T19:27:17.396Z,8.875
2022-12-04T19:31:19.515Z,7.9
2022-12-04T19:34:17.863Z,7.425
2022-12-04T19:37:17.871Z,13.2875
2022-12-04T19:41:19.829Z,12.2125
2022-12-04T19:44:47.351Z,5.6625
2022-12-04T19:47:17.688Z,6.975
2022-12-04T19:51:19.320Z,4.699999999999999
2022-12-04T19:54:17.017Z,2.9749999999999996
2022-12-04T19:57:17.319Z,4.5
2022-12-04T20:01:18.939Z,2.5125
2022-12-04T20:04:16.536Z,3.8
2022-12-04T20:07:16.540Z,12.325
2022-12-04T20:11:20.019Z,19.150000000000002
2022-12-04T20:14:17.536Z,9.8125
2022-12-04T20:17:17.485Z,9.075
2022-12-04T20:21:16.380Z,9.85
2022-12-04T20:24:16.889Z,5
2022-12-04T20:27:16.814Z,4.55
2022-12-04T20:31:19.080Z,6.275
2022-12-04T20:34:18.156Z,4.575
2022-12-04T20:37:17.047Z,4.3125
2022-12-04T20:41:17.576Z,5.725
2022-12-04T20:44:18.620Z,16.3375
2022-12-04T20:47:17.532Z,12.55
2022-12-04T20:51:19.624Z,4.225
2022-12-04T20:54:21.107Z,2.4625
2022-12-04T20:57:17.257Z,2.575
2022-12-04T21:01:17.970Z,3.3875
2022-12-04T21:04:18.624Z,7.687499999999999
2022-12-04T21:07:17.485Z,14.8375
2022-12-04T21:11:16.213Z,8.6375
2022-12-04T21:21:16.870Z,5.762499999999999
2022-12-04T21:24:19.000Z,4.9
2022-12-04T21:27:21.053Z,5
2022-12-04T21:31:16.509Z,7.2125
2022-12-04T21:34:17.987Z,6.6
2022-12-04T21:37:17.265Z,5.9375
2022-12-04T21:42:30.608Z,6.6875
2022-12-04T21:44:19.190Z,35.8375
2022-12-04T21:47:17.110Z,8.475
2022-12-04T21:51:33.016Z,3.65
2022-12-04T21:54:17.705Z,4.375
2022-12-04T21:57:18.348Z,6.0875
2022-12-04T22:01:18.984Z,3.1625
2022-12-04T22:04:16.725Z,3.4875
2022-12-04T22:07:16.574Z,4.012499999999999
2022-12-04T22:11:17.911Z,3.55
2022-12-04T22:14:17.143Z,3.775
2022-12-04T22:17:17.097Z,3.8625
2022-12-04T22:21:16.868Z,3.4125
2022-12-04T22:24:17.170Z,3.8375
2022-12-04T22:27:17.207Z,7.387499999999999
2022-12-04T22:31:19.733Z,3.3499999999999996
2022-12-04T22:34:17.491Z,2.6625
2022-12-04T22:37:17.665Z,3.8625
2022-12-04T22:41:19.410Z,4.824999999999999
2022-12-04T22:44:16.579Z,2.8875
2022-12-04T22:47:16.633Z,2.7125
2022-12-04T22:51:19.144Z,3.9375
2022-12-04T22:54:17.296Z,3.9000000000000004
2022-12-04T22:57:18.204Z,2.6625
2022-12-04T23:01:18.257Z,2.85
2022-12-04T23:04:17.296Z,2.2
2022-12-04T23:07:16.806Z,3.4125
2022-12-04T23:11:19.338Z,3.4625
2022-12-04T23:14:16.832Z,3.125
2022-12-04T23:17:17.612Z,2.7
2022-12-04T23:21:18.059Z,3.4125
2022-12-04T23:24:16.569Z,2.275
2022-12-04T23:27:16.513Z,2.2625
2022-12-04T23:31:17.468Z,1.9625
2022-12-04T23:34:17.304Z,2.7125
2022-12-04T23:37:17.190Z,1.8624999999999998
2022-12-04T23:41:18.754Z,2.2125
2022-12-04T23:44:16.761Z,2.075
2022-12-04T23:47:16.850Z,1.4249999999999998
2022-12-04T23:51:18.486Z,1.8625000000000003
2022-12-04T23:54:16.932Z,1.9875000000000003
2022-12-04T23:57:16.992Z,1.4
